Time;durP1;ratioP1;P1;durP2;ratioP2;P2;SDS_P1;SDS_P2;PMS_P1;PMS_P2;Temp;Humidity;BMP_temperature;BMP_pressure;BME280_temperature;BME280_humidity;BME280_pressure;Samples;Min_cycle;Max_cycle;Signal;HPM_P1;HPM_P2
2023/11/29 00:01:59;;;;;;;10.70;8.67;;;3.10;99.90;;;;;;5055849;28;20853;-61
2023/11/29 00:04:26;;;;;;;11.40;8.43;;;3.10;99.90;;;;;;5055853;28;20454;-61
2023/11/29 00:06:52;;;;;;;17.43;8.90;;;3.00;99.90;;;;;;5055752;28;20458;-61
2023/11/29 00:09:20;;;;;;;13.13;8.60;;;3.00;99.80;;;;;;5055745;28;20477;-61
2023/11/29 00:11:47;;;;;;;11.30;8.20;;;3.00;99.90;;;;;;5055854;28;20473;-61
2023/11/29 00:14:14;;;;;;;11.03;8.37;;;3.10;99.90;;;;;;5055742;28;20460;-61
2023/11/29 00:16:40;;;;;;;14.73;7.77;;;3.10;99.60;;;;;;5066153;28;20483;-61
2023/11/29 00:19:07;;;;;;;16.97;7.70;;;3.10;99.40;;;;;;5075531;28;20452;-61
2023/11/29 00:21:40;;;;;;;12.80;9.30;;;3.00;99.30;;;;;;5075039;28;20961;-61
2023/11/29 00:24:07;;;;;;;11.47;7.90;;;3.10;99.50;;;;;;5074980;28;20448;-61
2023/11/29 00:26:35;;;;;;;14.20;8.40;;;3.10;99.40;;;;;;5075270;28;20441;-61
2023/11/29 00:29:02;;;;;;;11.47;7.90;;;3.10;99.30;;;;;;5075308;28;20444;-61
2023/11/29 00:31:29;;;;;;;17.50;7.77;;;3.10;99.30;;;;;;5075209;28;20445;-61
2023/11/29 00:33:56;;;;;;;12.70;8.27;;;3.10;99.00;;;;;;5075186;28;20440;-61
2023/11/29 00:36:23;;;;;;;11.77;8.43;;;3.20;99.00;;;;;;5075534;28;20476;-61
2023/11/29 00:38:49;;;;;;;9.37;7.97;;;3.20;98.80;;;;;;5075287;28;20471;-62
2023/11/29 00:41:16;;;;;;;10.50;6.83;;;3.20;98.80;;;;;;5075175;28;20449;-61
2023/11/29 00:43:44;;;;;;;11.70;7.97;;;3.20;98.40;;;;;;5075119;28;20455;-63
2023/11/29 00:46:11;;;;;;;9.23;7.20;;;3.20;98.40;;;;;;5075332;28;20448;-61
2023/11/29 00:48:37;;;;;;;9.07;7.13;;;3.20;98.40;;;;;;5075076;28;20463;-61
2023/11/29 00:51:05;;;;;;;10.03;7.50;;;3.20;98.40;;;;;;5074816;28;20469;-61
2023/11/29 00:53:32;;;;;;;10.30;7.07;;;3.20;98.20;;;;;;5074950;28;20787;-61
2023/11/29 00:55:59;;;;;;;10.70;7.47;;;3.20;98.40;;;;;;5074774;28;20491;-61
2023/11/29 00:58:26;;;;;;;11.20;7.00;;;3.20;98.60;;;;;;5074719;28;20519;-61
2023/11/29 01:00:54;;;;;;;10.23;7.30;;;3.20;98.80;;;;;;5073606;28;20493;-61
2023/11/29 01:03:21;;;;;;;13.43;7.60;;;3.20;98.90;;;;;;5074092;28;20820;-62
2023/11/29 01:05:48;;;;;;;10.10;8.20;;;3.20;99.20;;;;;;5074534;28;20433;-61
2023/11/29 01:08:14;;;;;;;12.60;7.90;;;3.30;99.40;;;;;;5073989;28;20831;-61
2023/11/29 01:10:41;;;;;;;10.60;7.90;;;3.30;99.40;;;;;;5074348;28;20870;-61
2023/11/29 01:13:08;;;;;;;11.50;7.90;;;3.30;99.60;;;;;;5074387;28;20456;-61
2023/11/29 01:15:34;;;;;;;10.53;8.40;;;3.30;99.70;;;;;;5073953;28;20535;-61
2023/11/29 01:18:02;;;;;;;9.33;7.40;;;3.40;99.80;;;;;;5074241;28;20459;-61
2023/11/29 01:20:29;;;;;;;8.57;7.10;;;3.30;99.60;;;;;;5074058;28;20472;-62
2023/11/29 01:22:56;;;;;;;11.67;7.63;;;3.30;99.70;;;;;;5073925;28;20449;-61
2023/11/29 01:25:23;;;;;;;9.53;8.27;;;3.30;99.90;;;;;;5073905;28;20452;-61
2023/11/29 01:27:48;;;;;;;10.10;7.90;;;3.30;99.90;;;;;;5074084;28;20443;-61
2023/11/29 01:30:15;;;;;;;11.73;8.20;;;3.20;99.90;;;;;;5073908;28;20531;-62
2023/11/29 01:32:42;;;;;;;11.87;8.93;;;3.20;99.90;;;;;;5074101;28;20207;-61
2023/11/29 01:35:10;;;;;;;9.83;7.80;;;3.20;99.90;;;;;;5073964;28;20523;-61
2023/11/29 01:37:36;;;;;;;12.70;8.50;;;3.20;99.90;;;;;;5072936;28;20510;-61
2023/11/29 01:40:04;;;;;;;11.83;8.23;;;3.20;99.90;;;;;;5073830;28;20522;-62
2023/11/29 01:42:31;;;;;;;13.00;7.90;;;3.20;99.90;;;;;;5073843;28;20444;-61
2023/11/29 01:44:57;;;;;;;13.47;8.97;;;3.20;99.90;;;;;;5073844;28;20437;-62
2023/11/29 01:47:25;;;;;;;13.33;8.60;;;3.10;99.90;;;;;;5073506;28;20787;-61
2023/11/29 01:49:52;;;;;;;14.83;8.77;;;3.20;99.90;;;;;;5073704;28;20560;-62
2023/11/29 01:52:20;;;;;;;18.83;9.63;;;3.10;99.90;;;;;;5073413;28;20931;-61
2023/11/29 01:54:47;;;;;;;13.87;9.07;;;3.20;99.90;;;;;;5073666;28;20448;-62
2023/11/29 01:57:14;;;;;;;11.37;8.47;;;3.20;99.90;;;;;;5073393;28;20472;-61
2023/11/29 01:59:40;;;;;;;18.90;9.07;;;3.20;99.90;;;;;;5073494;28;20488;-62
2023/11/29 02:02:07;;;;;;;14.03;9.00;;;3.20;99.90;;;;;;5073588;28;20441;-61
2023/11/29 02:04:34;;;;;;;13.30;9.30;;;3.20;99.90;;;;;;5073518;28;20441;-61
2023/11/29 02:07:02;;;;;;;15.03;9.23;;;3.20;99.90;;;;;;5073532;28;20443;-61
2023/11/29 02:09:30;;;;;;;12.50;9.03;;;3.20;99.90;;;;;;5072921;28;20894;-61
2023/11/29 02:11:57;;;;;;;14.57;9.67;;;3.10;99.90;;;;;;5073485;28;20479;-61
2023/11/29 02:14:24;;;;;;;12.37;9.57;;;3.20;99.90;;;;;;5073131;28;20460;-61
2023/11/29 02:16:51;;;;;;;17.73;9.43;;;3.10;99.90;;;;;;5073029;28;21006;-61
2023/11/29 02:19:17;;;;;;;13.03;9.07;;;3.10;99.90;;;;;;5072955;28;20863;-61
2023/11/29 02:21:44;;;;;;;14.50;9.00;;;3.10;99.90;;;;;;5073160;28;20448;-61
2023/11/29 02:24:17;;;;;;;15.30;8.37;;;3.10;99.90;;;;;;5073012;28;20449;-61
2023/11/29 02:26:45;;;;;;;12.70;9.70;;;3.20;99.90;;;;;;5073313;28;20479;-62
2023/11/29 02:29:12;;;;;;;14.90;9.03;;;3.20;99.90;;;;;;5073255;28;20460;-61
2023/11/29 02:31:39;;;;;;;12.20;9.00;;;3.20;99.90;;;;;;5073350;28;20449;-61
2023/11/29 02:34:05;;;;;;;12.73;8.70;;;3.20;99.90;;;;;;5073090;28;20440;-61
2023/11/29 02:36:32;;;;;;;11.00;8.13;;;3.20;99.90;;;;;;5073134;28;20472;-61
2023/11/29 02:38:59;;;;;;;14.03;9.73;;;3.20;99.90;;;;;;5073142;28;20444;-61
2023/11/29 02:41:25;;;;;;;13.67;9.73;;;3.20;99.90;;;;;;5072823;28;21041;-61
2023/11/29 02:43:55;;;;;;;13.80;9.07;;;3.20;99.90;;;;;;5072970;28;20938;-61
2023/11/29 02:46:22;;;;;;;14.13;9.47;;;3.10;99.90;;;;;;5073063;28;20440;-61
2023/11/29 02:48:49;;;;;;;13.70;9.37;;;3.10;99.90;;;;;;5075451;28;20931;-62
2023/11/29 02:51:16;;;;;;;10.33;7.90;;;3.10;99.90;;;;;;5077159;28;20441;-61
2023/11/29 02:53:43;;;;;;;14.43;9.70;;;3.00;99.90;;;;;;5077038;28;20468;-61
2023/11/29 02:56:10;;;;;;;15.27;10.03;;;3.00;99.90;;;;;;5076967;28;20452;-61
2023/11/29 02:58:37;;;;;;;13.00;9.43;;;3.10;99.90;;;;;;5077062;28;20441;-61
2023/11/29 03:01:05;;;;;;;14.67;9.90;;;3.10;99.90;;;;;;5057159;28;20485;-62
2023/11/29 03:03:32;;;;;;;17.43;11.37;;;3.20;99.90;;;;;;5056719;28;20445;-61
2023/11/29 03:05:58;;;;;;;18.57;10.37;;;3.20;99.90;;;;;;5056921;28;20464;-61
2023/11/29 03:08:25;;;;;;;14.57;9.57;;;3.20;99.90;;;;;;5057001;28;20440;-61
2023/11/29 03:10:53;;;;;;;18.53;9.73;;;3.20;99.90;;;;;;5057199;28;20473;-61
2023/11/29 03:13:20;;;;;;;15.07;10.77;;;3.20;99.90;;;;;;5056461;28;20446;-61
2023/11/29 03:15:46;;;;;;;15.63;9.40;;;3.30;99.90;;;;;;5056688;28;20421;-61
2023/11/29 03:18:15;;;;;;;16.57;10.63;;;3.20;99.90;;;;;;5056384;28;20488;-61
2023/11/29 03:20:41;;;;;;;17.70;9.93;;;3.10;99.90;;;;;;5056152;28;20983;-61
2023/11/29 03:23:08;;;;;;;16.00;11.03;;;3.20;99.90;;;;;;5056184;28;20967;-62
2023/11/29 03:25:34;;;;;;;15.30;9.50;;;3.20;99.90;;;;;;5056339;28;20919;-61
2023/11/29 03:28:01;;;;;;;19.30;9.50;;;3.20;99.90;;;;;;5056462;28;20442;-61
2023/11/29 03:30:28;;;;;;;12.83;9.33;;;3.20;99.90;;;;;;5056362;28;20472;-61
2023/11/29 03:32:54;;;;;;;12.40;8.93;;;3.30;99.90;;;;;;5056329;28;20449;-62
2023/11/29 03:35:22;;;;;;;12.90;10.00;;;3.30;99.90;;;;;;5056361;28;20450;-61
2023/11/29 03:37:49;;;;;;;11.47;9.07;;;3.30;99.90;;;;;;5056258;28;20473;-61
2023/11/29 03:40:16;;;;;;;14.77;11.07;;;3.30;99.90;;;;;;5056229;28;20473;-61
2023/11/29 03:42:43;;;;;;;14.90;9.30;;;3.20;99.90;;;;;;5056325;28;20441;-61
2023/11/29 03:45:10;;;;;;;19.13;10.10;;;3.30;99.90;;;;;;5056165;28;20814;-61
2023/11/29 03:47:37;;;;;;;16.60;10.13;;;3.30;99.90;;;;;;5055754;28;20820;-61
2023/11/29 03:50:04;;;;;;;16.10;10.70;;;3.20;99.90;;;;;;5055911;28;20464;-61
2023/11/29 03:52:32;;;;;;;13.30;10.10;;;3.20;99.90;;;;;;5055676;28;20944;-61
2023/11/29 03:54:59;;;;;;;12.80;10.10;;;3.30;99.90;;;;;;5055752;28;20817;-61
2023/11/29 03:57:26;;;;;;;14.60;9.43;;;3.30;99.90;;;;;;5055873;28;20477;-61
2023/11/29 03:59:52;;;;;;;12.23;9.57;;;3.40;99.90;;;;;;5054983;28;20457;-60
2023/11/29 04:02:19;;;;;;;18.10;10.13;;;3.40;99.90;;;;;;5055873;28;20476;-60
2023/11/29 04:04:45;;;;;;;11.30;9.23;;;3.40;99.90;;;;;;5055775;28;20464;-60
2023/11/29 04:07:13;;;;;;;14.73;9.97;;;3.50;99.90;;;;;;5055378;28;20978;-60
2023/11/29 04:09:42;;;;;;;15.60;9.20;;;3.50;99.90;;;;;;5055279;28;20496;-60
2023/11/29 04:12:10;;;;;;;13.40;8.83;;;3.50;99.90;;;;;;5055544;28;20442;-60
2023/11/29 04:14:37;;;;;;;12.70;8.40;;;3.50;99.90;;;;;;5055120;28;20883;-60
2023/11/29 04:17:03;;;;;;;13.20;10.13;;;3.50;99.90;;;;;;5055439;28;20493;-60
2023/11/29 04:19:30;;;;;;;20.03;12.13;;;3.50;99.90;;;;;;5055347;28;20465;-60
2023/11/29 04:21:57;;;;;;;14.90;11.07;;;3.60;99.90;;;;;;5055410;28;20445;-61
2023/11/29 04:24:23;;;;;;;15.07;9.50;;;3.60;99.90;;;;;;5055184;28;20943;-60
2023/11/29 04:26:52;;;;;;;17.27;11.07;;;3.60;99.90;;;;;;5055341;28;20446;-61
2023/11/29 04:29:18;;;;;;;14.17;9.53;;;3.70;99.90;;;;;;5055296;28;20461;-61
2023/11/29 04:31:45;;;;;;;13.73;10.27;;;3.70;99.90;;;;;;5055281;28;20442;-60
2023/11/29 04:34:12;;;;;;;13.30;9.37;;;3.70;99.90;;;;;;5055418;28;20940;-60
2023/11/29 04:36:40;;;;;;;20.57;11.33;;;3.70;99.90;;;;;;5055146;28;20815;-60
2023/11/29 04:39:09;;;;;;;15.53;10.23;;;3.80;99.90;;;;;;5054741;28;21006;-61
2023/11/29 04:41:36;;;;;;;15.47;10.43;;;3.70;99.90;;;;;;5055079;28;20442;-61
2023/11/29 04:44:04;;;;;;;17.57;10.40;;;3.70;99.90;;;;;;5055027;28;20442;-61
2023/11/29 04:46:31;;;;;;;15.73;10.07;;;3.60;99.90;;;;;;5054939;28;20492;-61
2023/11/29 04:48:58;;;;;;;17.50;11.20;;;3.60;99.90;;;;;;5054843;28;20487;-62
2023/11/29 04:51:26;;;;;;;15.10;10.17;;;3.60;99.90;;;;;;5054935;28;20445;-62
2023/11/29 04:53:52;;;;;;;17.30;10.70;;;3.60;99.90;;;;;;5054662;28;20445;-61
2023/11/29 04:56:19;;;;;;;16.87;10.40;;;3.40;99.90;;;;;;5054679;28;20441;-61
2023/11/29 04:58:46;;;;;;;18.23;10.30;;;3.30;99.90;;;;;;5054325;28;20576;-61
2023/11/29 05:01:15;;;;;;;19.50;10.33;;;3.30;99.90;;;;;;5054748;28;20441;-61
2023/11/29 05:03:41;;;;;;;15.27;10.43;;;3.30;99.90;;;;;;5054608;28;20539;-61
2023/11/29 05:06:10;;;;;;;21.20;11.33;;;3.20;99.90;;;;;;5054542;28;20449;-60
2023/11/29 05:08:37;;;;;;;18.03;10.97;;;3.20;99.90;;;;;;5054554;28;20473;-61
2023/11/29 05:11:05;;;;;;;16.60;10.60;;;3.20;99.90;;;;;;5054423;28;20465;-60
2023/11/29 05:13:31;;;;;;;17.87;10.93;;;3.30;99.90;;;;;;5054132;28;20485;-60
2023/11/29 05:15:58;;;;;;;22.87;11.80;;;3.30;99.90;;;;;;5054463;28;20513;-60
2023/11/29 05:18:26;;;;;;;19.00;11.53;;;3.40;99.90;;;;;;5054301;28;20485;-60
2023/11/29 05:20:53;;;;;;;18.77;12.33;;;3.30;99.90;;;;;;5054253;28;20500;-60
2023/11/29 05:23:21;;;;;;;21.43;12.50;;;3.40;99.90;;;;;;5054152;28;20533;-60
2023/11/29 05:25:47;;;;;;;18.70;12.13;;;3.40;99.90;;;;;;5054288;28;20495;-60
2023/11/29 05:28:14;;;;;;;26.77;11.70;;;3.40;99.90;;;;;;5054166;28;20477;-60
2023/11/29 05:30:41;;;;;;;17.20;10.90;;;3.40;99.90;;;;;;5054036;28;20465;-60
2023/11/29 05:33:08;;;;;;;18.57;12.10;;;3.40;99.90;;;;;;5053972;28;20445;-60
2023/11/29 05:35:36;;;;;;;17.47;12.30;;;3.50;99.90;;;;;;5053659;28;20481;-60
2023/11/29 05:38:03;;;;;;;16.33;11.30;;;3.50;99.90;;;;;;5053974;28;20543;-60
2023/11/29 05:40:29;;;;;;;18.80;11.33;;;3.50;99.90;;;;;;5053799;28;20461;-60
2023/11/29 05:42:56;;;;;;;19.67;11.13;;;3.50;99.90;;;;;;5054408;28;20449;-60
2023/11/29 05:45:23;;;;;;;17.33;11.73;;;3.60;99.90;;;;;;5053857;28;20445;-60
2023/11/29 05:47:49;;;;;;;17.23;11.10;;;3.60;99.90;;;;;;5053491;28;20931;-60
2023/11/29 05:50:16;;;;;;;14.13;10.77;;;3.60;99.90;;;;;;5053418;28;20975;-60
2023/11/29 05:52:45;;;;;;;15.10;9.10;;;3.60;99.90;;;;;;5053709;28;20445;-60
2023/11/29 05:55:12;;;;;;;20.37;12.00;;;3.60;99.90;;;;;;5053325;28;20881;-61
2023/11/29 05:57:39;;;;;;;18.13;11.07;;;3.50;99.90;;;;;;5053633;28;20847;-60
2023/11/29 06:00:09;;;;;;;16.70;10.07;;;3.50;99.90;;;;;;5053407;28;20489;-60
2023/11/29 06:02:37;;;;;;;16.43;11.10;;;3.50;99.90;;;;;;5053629;28;20445;-60
2023/11/29 06:05:05;;;;;;;18.07;11.37;;;3.50;99.90;;;;;;5053518;28;20449;-60
2023/11/29 06:07:31;;;;;;;14.70;10.30;;;3.60;99.90;;;;;;5053227;28;20923;-60
2023/11/29 06:10:00;;;;;;;15.47;10.70;;;3.60;99.90;;;;;;5053112;28;21002;-60
2023/11/29 06:12:27;;;;;;;16.97;10.93;;;3.60;99.90;;;;;;5053137;28;20823;-61
2023/11/29 06:14:54;;;;;;;17.30;11.03;;;3.60;99.90;;;;;;5052914;28;20544;-61
2023/11/29 06:17:20;;;;;;;17.77;10.60;;;3.60;99.90;;;;;;5053230;28;20445;-61
2023/11/29 06:19:47;;;;;;;19.03;11.20;;;3.60;99.90;;;;;;5053286;28;20469;-61
2023/11/29 06:22:14;;;;;;;19.23;10.93;;;3.70;99.90;;;;;;5053197;28;20442;-61
2023/11/29 06:24:41;;;;;;;16.47;11.10;;;3.70;99.90;;;;;;5053309;28;20448;-61
2023/11/29 06:27:10;;;;;;;17.37;11.57;;;3.70;99.90;;;;;;5053290;28;20452;-61
2023/11/29 06:29:36;;;;;;;22.37;10.87;;;3.70;99.90;;;;;;5053269;28;20515;-61
2023/11/29 06:32:03;;;;;;;14.37;10.33;;;3.60;99.90;;;;;;5053351;28;20450;-61
2023/11/29 06:34:30;;;;;;;16.00;10.70;;;3.60;99.90;;;;;;5052827;28;20444;-61
2023/11/29 06:36:56;;;;;;;14.47;9.87;;;3.60;99.90;;;;;;5053217;28;20444;-61
2023/11/29 06:39:23;;;;;;;15.47;10.20;;;3.60;99.90;;;;;;5053131;28;20496;-61
2023/11/29 06:41:50;;;;;;;15.73;9.90;;;3.60;99.90;;;;;;5053028;28;20449;-61
2023/11/29 06:44:18;;;;;;;16.00;10.43;;;3.60;99.90;;;;;;5053241;28;20492;-61
2023/11/29 06:46:44;;;;;;;15.10;10.20;;;3.70;99.90;;;;;;5053118;28;20468;-60
2023/11/29 06:49:11;;;;;;;12.87;9.80;;;3.60;99.90;;;;;;5052972;28;20464;-61
2023/11/29 06:51:38;;;;;;;14.57;10.63;;;3.50;99.90;;;;;;5053109;28;20445;-61
2023/11/29 06:54:05;;;;;;;15.10;9.40;;;3.50;99.90;;;;;;5052934;28;20454;-61
2023/11/29 06:56:32;;;;;;;16.67;10.80;;;3.60;99.90;;;;;;5053035;28;20449;-61
2023/11/29 06:58:58;;;;;;;15.50;10.73;;;3.60;99.90;;;;;;5052946;28;20513;-61
2023/11/29 07:01:26;;;;;;;14.93;10.73;;;3.60;99.90;;;;;;5053851;28;20441;-61
2023/11/29 07:03:53;;;;;;;13.10;9.80;;;3.60;99.90;;;;;;5052951;28;20446;-61
2023/11/29 07:06:21;;;;;;;14.73;9.57;;;3.60;99.90;;;;;;5052895;28;20441;-61
2023/11/29 07:08:48;;;;;;;13.83;10.57;;;3.50;99.90;;;;;;5052904;28;20472;-61
2023/11/29 07:11:15;;;;;;;11.60;9.03;;;3.50;99.90;;;;;;5053646;28;20457;-61
2023/11/29 07:13:41;;;;;;;14.87;10.43;;;3.60;99.90;;;;;;5052528;28;20461;-61
2023/11/29 07:16:09;;;;;;;13.10;9.60;;;3.60;99.90;;;;;;5052705;28;20445;-61
2023/11/29 07:18:37;;;;;;;14.57;9.63;;;3.60;99.90;;;;;;5052708;28;20484;-61
2023/11/29 07:21:04;;;;;;;13.87;9.90;;;3.70;99.90;;;;;;5052738;28;20461;-61
2023/11/29 07:23:31;;;;;;;15.07;9.43;;;3.70;99.90;;;;;;5052809;28;20441;-61
2023/11/29 07:25:57;;;;;;;14.40;10.13;;;3.70;99.90;;;;;;5052594;28;20438;-61
2023/11/29 07:28:25;;;;;;;15.70;10.13;;;3.70;99.90;;;;;;5052765;28;20453;-61
2023/11/29 07:30:52;;;;;;;11.07;8.80;;;3.70;99.90;;;;;;5052283;28;20971;-60
2023/11/29 07:33:19;;;;;;;12.20;10.33;;;3.70;99.90;;;;;;5052683;28;20445;-60
2023/11/29 07:35:47;;;;;;;14.03;9.80;;;3.70;99.90;;;;;;5055011;28;20445;-60
2023/11/29 07:38:13;;;;;;;16.17;10.70;;;3.60;99.90;;;;;;5056206;28;20477;-60
2023/11/29 07:40:40;;;;;;;14.50;9.20;;;3.70;99.90;;;;;;5055943;28;20974;-60
2023/11/29 07:43:08;;;;;;;14.37;9.20;;;3.70;99.90;;;;;;5055927;28;20449;-60
2023/11/29 07:45:35;;;;;;;12.17;9.20;;;3.60;99.90;;;;;;5056235;28;20499;-60
2023/11/29 07:48:02;;;;;;;15.03;9.80;;;3.60;99.90;;;;;;5056080;28;20446;-60
2023/11/29 07:50:28;;;;;;;21.80;10.23;;;3.70;99.90;;;;;;5055938;28;20462;-61
2023/11/29 07:52:57;;;;;;;15.53;10.07;;;3.70;99.90;;;;;;5056027;28;20446;-61
2023/11/29 07:55:23;;;;;;;14.90;10.10;;;3.70;99.90;;;;;;5055714;28;20449;-61
2023/11/29 07:57:50;;;;;;;15.00;9.80;;;3.70;99.90;;;;;;5055609;28;20958;-60
2023/11/29 08:00:18;;;;;;;18.83;10.23;;;3.80;99.90;;;;;;5055768;28;20458;-60
2023/11/29 08:02:44;;;;;;;14.27;10.10;;;3.80;99.90;;;;;;5055562;28;20958;-61
2023/11/29 08:05:11;;;;;;;13.17;9.93;;;3.80;99.90;;;;;;5055941;28;20857;-60
2023/11/29 08:07:37;;;;;;;14.90;10.67;;;3.80;99.90;;;;;;5055500;28;20818;-60
2023/11/29 08:10:07;;;;;;;12.40;8.50;;;3.90;99.90;;;;;;5055961;28;20469;-61
2023/11/29 08:12:34;;;;;;;11.73;9.00;;;3.90;99.90;;;;;;5055671;28;20488;-61
2023/11/29 08:15:01;;;;;;;15.13;9.00;;;3.90;99.90;;;;;;5055170;28;20949;-61
2023/11/29 08:17:27;;;;;;;14.47;9.40;;;4.00;99.90;;;;;;5055525;28;20488;-61
2023/11/29 08:19:54;;;;;;;15.50;8.77;;;3.90;99.90;;;;;;5055114;28;21003;-62
2023/11/29 08:22:21;;;;;;;14.77;9.50;;;3.90;99.90;;;;;;5055603;28;20442;-61
2023/11/29 08:24:48;;;;;;;13.37;8.90;;;4.00;99.90;;;;;;5055556;28;20446;-61
2023/11/29 08:27:18;;;;;;;12.30;10.30;;;4.00;99.90;;;;;;5056603;28;20453;-61
2023/11/29 08:29:46;;;;;;;13.50;10.83;;;4.00;99.90;;;;;;5055377;28;20461;-61
2023/11/29 08:32:12;;;;;;;11.77;9.00;;;4.10;99.90;;;;;;5055326;28;20931;-61
2023/11/29 08:34:39;;;;;;;13.17;9.73;;;4.10;99.90;;;;;;5055022;28;20448;-61
2023/11/29 08:37:05;;;;;;;15.30;9.70;;;4.20;99.90;;;;;;5055283;28;20516;-61
2023/11/29 08:39:31;;;;;;;13.90;9.63;;;4.10;99.90;;;;;;5055106;28;20507;-61
2023/11/29 08:41:58;;;;;;;12.30;8.03;;;4.10;99.90;;;;;;5055034;28;20211;-61
2023/11/29 08:44:26;;;;;;;8.90;7.53;;;4.10;99.90;;;;;;5055286;28;20438;-61
2023/11/29 08:46:53;;;;;;;9.80;8.47;;;4.20;99.90;;;;;;5054647;28;20461;-61
2023/11/29 08:49:20;;;;;;;12.50;9.30;;;4.30;99.90;;;;;;5054862;28;20457;-62
2023/11/29 08:51:46;;;;;;;13.77;9.20;;;4.30;99.90;;;;;;5054868;28;20481;-61
2023/11/29 08:54:13;;;;;;;12.87;8.90;;;4.40;99.90;;;;;;5054761;28;20438;-61
2023/11/29 08:56:40;;;;;;;11.97;9.97;;;4.50;99.90;;;;;;5054622;28;20448;-61
2023/11/29 08:59:07;;;;;;;12.40;10.00;;;4.50;99.90;;;;;;5054320;28;20477;-62
2023/11/29 09:01:35;;;;;;;11.50;8.10;;;4.70;99.90;;;;;;5054359;28;20944;-61
2023/11/29 09:04:02;;;;;;;11.63;8.00;;;4.80;99.90;;;;;;5054659;28;20454;-61
2023/11/29 09:06:30;;;;;;;10.03;8.10;;;4.90;99.90;;;;;;5054512;28;20449;-61
2023/11/29 09:08:56;;;;;;;8.60;7.37;;;4.90;99.90;;;;;;5054521;28;20469;-61
2023/11/29 09:11:23;;;;;;;13.23;7.47;;;4.90;99.90;;;;;;5054524;28;20819;-61
2023/11/29 09:13:50;;;;;;;10.87;8.00;;;4.80;99.90;;;;;;5054307;28;20459;-61
2023/11/29 09:16:18;;;;;;;10.90;7.70;;;4.80;99.90;;;;;;5054215;28;20426;-61
2023/11/29 09:18:47;;;;;;;11.20;7.60;;;4.80;99.90;;;;;;5054259;28;20481;-61
2023/11/29 09:21:14;;;;;;;8.23;7.00;;;4.90;99.90;;;;;;5054252;28;20449;-62
2023/11/29 09:23:41;;;;;;;10.83;8.03;;;4.90;99.90;;;;;;5054246;28;20448;-61
2023/11/29 09:26:08;;;;;;;8.20;6.97;;;5.00;99.90;;;;;;5054390;28;20966;-61
2023/11/29 09:28:35;;;;;;;9.20;7.13;;;5.00;99.90;;;;;;5053840;28;21011;-61
2023/11/29 09:31:03;;;;;;;12.40;7.60;;;5.00;99.90;;;;;;5054044;28;20470;-61
2023/11/29 09:33:30;;;;;;;10.03;7.50;;;5.10;99.90;;;;;;5054087;28;20446;-61
2023/11/29 09:35:58;;;;;;;10.57;7.33;;;5.10;99.90;;;;;;5053546;28;20445;-60
2023/11/29 09:38:25;;;;;;;9.50;8.00;;;5.10;99.90;;;;;;5053860;28;20449;-60
2023/11/29 09:40:51;;;;;;;7.47;6.57;;;5.00;99.90;;;;;;5053919;28;20501;-60
2023/11/29 09:43:18;;;;;;;7.87;6.83;;;5.00;99.90;;;;;;5053813;28;20449;-60
2023/11/29 09:45:45;;;;;;;12.17;8.13;;;4.90;99.90;;;;;;5053988;28;20785;-60
2023/11/29 09:48:13;;;;;;;14.10;7.90;;;4.80;99.90;;;;;;5053607;28;20800;-60
2023/11/29 09:50:40;;;;;;;8.67;7.60;;;4.80;99.90;;;;;;5053832;28;20473;-60
2023/11/29 09:53:10;;;;;;;11.80;7.53;;;4.80;99.90;;;;;;5053846;28;20448;-60
2023/11/29 09:55:36;;;;;;;10.90;9.20;;;4.80;99.90;;;;;;5053730;28;20453;-60
2023/11/29 09:58:04;;;;;;;12.40;9.07;;;4.70;99.90;;;;;;5053037;28;20437;-60
2023/11/29 10:00:32;;;;;;;9.97;7.60;;;4.70;99.90;;;;;;5053185;28;20492;-60
2023/11/29 10:03:11;;;;;;;9.00;8.07;;;4.70;99.90;;;;;;5053646;28;20944;-60
2023/11/29 10:05:38;;;;;;;10.67;8.53;;;4.70;99.90;;;;;;5053694;28;20471;-60
2023/11/29 10:08:05;;;;;;;11.33;9.10;;;4.70;99.90;;;;;;5053564;28;20452;-60
2023/11/29 10:10:36;;;;;;;8.87;7.97;;;4.70;99.90;;;;;;5053141;28;20967;-60
2023/11/29 10:13:03;;;;;;;8.90;7.57;;;4.80;99.90;;;;;;5053543;28;20437;-61
2023/11/29 10:15:30;;;;;;;8.73;7.93;;;4.90;99.90;;;;;;5052788;28;20461;-61
2023/11/29 10:17:58;;;;;;;10.30;7.37;;;5.00;99.90;;;;;;5053057;28;20936;-61
2023/11/29 10:20:26;;;;;;;9.20;8.20;;;5.10;99.90;;;;;;5053225;28;20852;-61
2023/11/29 10:22:53;;;;;;;9.73;8.33;;;5.10;99.90;;;;;;5053343;28;20559;-61
2023/11/29 10:25:20;;;;;;;9.50;8.23;;;5.00;99.90;;;;;;5053356;28;20446;-61
2023/11/29 10:27:49;;;;;;;12.30;7.53;;;5.00;99.90;;;;;;5053258;28;20499;-60
2023/11/29 10:30:17;;;;;;;10.33;9.23;;;5.10;99.90;;;;;;5053231;28;20469;-61
2023/11/29 10:32:44;;;;;;;10.27;9.20;;;5.10;99.90;;;;;;5053193;28;20539;-61
2023/11/29 10:35:13;;;;;;;10.70;8.60;;;5.10;99.90;;;;;;5053195;28;20448;-61
2023/11/29 10:37:44;;;;;;;11.63;8.33;;;5.30;99.90;;;;;;5053130;28;20527;-61
2023/11/29 10:40:14;;;;;;;10.00;9.00;;;5.30;99.90;;;;;;5053045;28;20554;-61
2023/11/29 10:42:43;;;;;;;10.70;8.13;;;5.40;99.90;;;;;;5053441;28;20448;-61
2023/11/29 10:45:15;;;;;;;12.20;8.47;;;5.50;99.90;;;;;;5053115;28;20466;-61
2023/11/29 10:47:48;;;;;;;8.60;7.73;;;5.50;99.90;;;;;;5053301;28;20578;-61
2023/11/29 10:50:17;;;;;;;9.50;8.50;;;5.60;99.90;;;;;;5053103;28;20454;-61
2023/11/29 10:52:43;;;;;;;21.60;8.53;;;5.60;99.90;;;;;;5053116;28;20452;-61
2023/11/29 10:55:10;;;;;;;10.37;8.03;;;5.60;99.90;;;;;;5052931;28;20495;-61
2023/11/29 10:57:41;;;;;;;8.87;8.07;;;5.60;99.90;;;;;;5052905;28;20445;-61
2023/11/29 11:00:15;;;;;;;12.47;8.67;;;5.50;99.90;;;;;;5052926;28;20576;-61
2023/11/29 11:02:44;;;;;;;8.73;7.50;;;5.40;99.90;;;;;;5053002;28;20476;-61
2023/11/29 11:05:11;;;;;;;9.03;7.77;;;5.40;99.90;;;;;;5053006;28;20500;-61
2023/11/29 11:07:39;;;;;;;8.70;7.80;;;5.30;99.90;;;;;;5052979;28;20441;-61
2023/11/29 11:10:09;;;;;;;9.33;7.57;;;5.30;99.90;;;;;;5056021;28;20485;-61
2023/11/29 11:12:36;;;;;;;8.67;7.77;;;5.30;99.90;;;;;;5056779;28;20441;-61
2023/11/29 11:15:07;;;;;;;8.40;7.20;;;5.20;99.90;;;;;;5056538;28;20453;-61
2023/11/29 11:17:35;;;;;;;9.23;7.63;;;5.30;99.90;;;;;;5056529;28;20856;-61
2023/11/29 11:20:06;;;;;;;8.70;7.80;;;5.30;99.90;;;;;;5056521;28;20493;-61
2023/11/29 11:22:40;;;;;;;9.43;8.47;;;5.40;99.90;;;;;;5056791;28;20434;-61
2023/11/29 11:25:10;;;;;;;8.53;6.90;;;5.30;99.90;;;;;;5056676;28;20895;-61
2023/11/29 11:27:38;;;;;;;10.27;8.37;;;5.30;99.90;;;;;;5056485;28;20445;-61
2023/11/29 11:30:24;;;;;;;8.23;7.43;;;5.30;99.90;;;;;;5056396;28;20465;-61
2023/11/29 11:32:56;;;;;;;10.70;7.47;;;5.30;99.90;;;;;;5056201;28;20450;-61
2023/11/29 11:35:32;;;;;;;8.80;7.13;;;5.30;99.90;;;;;;5056312;28;20414;-61
2023/11/29 11:38:00;;;;;;;8.67;7.77;;;5.30;99.90;;;;;;5055933;28;20432;-61
2023/11/29 11:40:28;;;;;;;11.33;8.27;;;5.40;99.90;;;;;;5056131;28;20488;-61
2023/11/29 11:42:56;;;;;;;7.97;7.27;;;5.30;99.90;;;;;;5056202;28;20445;-61
2023/11/29 11:45:23;;;;;;;8.40;7.03;;;5.40;99.90;;;;;;5056331;28;20794;-61
2023/11/29 11:47:51;;;;;;;7.50;6.80;;;5.50;99.90;;;;;;5056182;28;20445;-61
2023/11/29 11:50:19;;;;;;;12.50;6.77;;;5.50;99.90;;;;;;5055970;28;20466;-61
2023/11/29 11:52:46;;;;;;;7.13;6.30;;;5.40;99.90;;;;;;5055786;28;20947;-61
2023/11/29 11:55:15;;;;;;;7.63;6.93;;;5.50;99.90;;;;;;5055491;28;20999;-61
2023/11/29 11:57:43;;;;;;;11.30;7.27;;;5.40;99.90;;;;;;5055813;28;20449;-61
2023/11/29 12:00:11;;;;;;;8.33;5.83;;;5.40;99.90;;;;;;5066649;28;20484;-61
2023/11/29 12:02:39;;;;;;;8.20;7.40;;;5.40;99.90;;;;;;5075700;28;20815;-61
2023/11/29 12:05:07;;;;;;;6.93;6.27;;;5.40;99.90;;;;;;5076058;28;20448;-61
2023/11/29 12:07:39;;;;;;;11.20;6.00;;;5.40;99.90;;;;;;5075482;28;20946;-61
2023/11/29 12:10:06;;;;;;;10.10;6.70;;;5.40;99.90;;;;;;5075697;28;20547;-61
2023/11/29 12:12:33;;;;;;;10.03;6.63;;;5.40;99.90;;;;;;5075669;28;20448;-61
2023/11/29 12:15:02;;;;;;;7.67;6.40;;;5.40;99.90;;;;;;5075263;28;20466;-60
2023/11/29 12:17:33;;;;;;;6.03;5.53;;;5.50;99.90;;;;;;5075404;28;20449;-60
2023/11/29 12:20:01;;;;;;;6.80;6.20;;;5.50;99.90;;;;;;5074915;28;20603;-60
2023/11/29 12:22:28;;;;;;;8.37;6.30;;;5.50;99.90;;;;;;5075373;28;20449;-60
2023/11/29 12:24:57;;;;;;;12.37;6.50;;;5.60;99.90;;;;;;5075359;28;20468;-61
2023/11/29 12:27:26;;;;;;;6.10;5.50;;;5.60;99.90;;;;;;5075501;28;20464;-60
2023/11/29 12:29:56;;;;;;;6.50;5.90;;;5.70;99.90;;;;;;5075365;28;20499;-60
2023/11/29 12:32:25;;;;;;;6.13;5.53;;;5.70;99.90;;;;;;5076163;28;20456;-61
2023/11/29 12:34:53;;;;;;;7.23;6.10;;;5.70;99.90;;;;;;5075338;28;20857;-61
2023/11/29 12:37:20;;;;;;;8.63;5.80;;;5.80;99.90;;;;;;5075026;28;20452;-60
2023/11/29 12:39:47;;;;;;;7.10;6.50;;;5.80;99.90;;;;;;5075102;28;20557;-61
2023/11/29 12:42:15;;;;;;;7.00;6.40;;;5.80;99.90;;;;;;5075652;28;20860;-61
2023/11/29 12:44:42;;;;;;;8.70;5.80;;;5.80;99.90;;;;;;5075208;28;20484;-60
2023/11/29 12:47:09;;;;;;;11.63;6.10;;;5.90;99.90;;;;;;5075112;28;20471;-60